Time;durP1;ratioP1;P1;durP2;ratioP2;P2;SDS_P1;SDS_P2;PMS_P1;PMS_P2;Temp;Humidity;BMP_temperature;BMP_pressure;BME280_temperature;BME280_humidity;BME280_pressure;Samples;Min_cycle;Max_cycle;Signal;HPM_P1;HPM_P2
2023/03/01 00:01:32;;;;;;;13.00;9.43;;;0.10;99.90;;;;;;5014252;28;20053;-75
2023/03/01 00:03:58;;;;;;;14.32;9.52;;;0.10;99.90;;;;;;5014780;28;20358;-74
2023/03/01 00:06:25;;;;;;;11.13;7.93;;;0.10;99.90;;;;;;5015516;28;20108;-74
2023/03/01 00:08:51;;;;;;;11.95;8.20;;;0.10;99.90;;;;;;5015137;28;20045;-74
2023/03/01 00:11:18;;;;;;;15.27;9.57;;;0.00;99.90;;;;;;5002445;28;20041;-74
2023/03/01 00:13:45;;;;;;;13.85;9.05;;;0.00;99.90;;;;;;5014387;28;20093;-74
2023/03/01 00:16:14;;;;;;;14.13;9.05;;;0.00;99.90;;;;;;5015313;28;20081;-74
2023/03/01 00:18:40;;;;;;;14.07;8.70;;;0.10;99.90;;;;;;5009603;28;20125;-74
2023/03/01 00:21:06;;;;;;;15.10;9.70;;;-0.10;99.90;;;;;;5014228;28;20050;-75
2023/03/01 00:23:34;;;;;;;12.50;8.05;;;-0.10;99.90;;;;;;5015130;28;20042;-74
2023/03/01 00:26:00;;;;;;;11.07;7.50;;;-0.10;99.90;;;;;;5014749;28;20541;-74
2023/03/01 00:28:26;;;;;;;11.20;8.13;;;-0.20;99.90;;;;;;5002517;28;20053;-75
2023/03/01 00:30:52;;;;;;;10.32;7.22;;;-0.20;99.90;;;;;;5010051;28;20672;-75
2023/03/01 00:33:18;;;;;;;10.70;7.72;;;-0.30;99.90;;;;;;5015706;28;20022;-75
2023/03/01 00:35:44;;;;;;;13.07;8.52;;;-0.50;99.90;;;;;;5012040;28;20049;-74
2023/03/01 00:38:10;;;;;;;14.85;9.43;;;-0.70;99.90;;;;;;5008786;28;20050;-75
2023/03/01 00:40:36;;;;;;;14.02;8.95;;;-0.80;99.90;;;;;;5015747;28;20038;-74
2023/03/01 00:43:02;;;;;;;13.40;9.10;;;-0.90;99.90;;;;;;5014588;28;20053;-74
2023/03/01 00:45:30;;;;;;;12.48;8.82;;;-1.00;99.90;;;;;;5009860;28;20071;-74
2023/03/01 00:47:56;;;;;;;13.27;8.68;;;-1.00;99.90;;;;;;5012891;28;20113;-74
2023/03/01 00:50:23;;;;;;;12.93;8.77;;;-1.10;99.90;;;;;;5015236;28;20501;-74
2023/03/01 00:52:53;;;;;;;13.90;9.05;;;-1.10;99.90;;;;;;5015012;28;20052;-74
2023/03/01 00:55:19;;;;;;;13.43;8.00;;;-1.10;99.90;;;;;;5015566;28;20074;-75
2023/03/01 00:57:45;;;;;;;12.60;8.20;;;-1.00;99.90;;;;;;5008712;28;20504;-74
2023/03/01 01:00:11;;;;;;;14.98;8.88;;;-0.90;99.90;;;;;;5018567;28;20038;-74
2023/03/01 01:02:37;;;;;;;14.38;9.10;;;-0.80;99.90;;;;;;5012849;28;20048;-74
2023/03/01 01:05:03;;;;;;;18.65;10.80;;;-0.80;99.90;;;;;;5015290;28;20076;-74
2023/03/01 01:07:29;;;;;;;13.05;8.90;;;-0.70;99.90;;;;;;5018916;28;20076;-74
2023/03/01 01:09:55;;;;;;;10.13;7.28;;;-0.70;99.90;;;;;;5000351;28;20423;-74
2023/03/01 01:12:21;;;;;;;13.38;8.57;;;-0.80;99.90;;;;;;5018708;28;20041;-74
2023/03/01 01:14:46;;;;;;;13.60;9.25;;;-0.90;99.90;;;;;;5003658;28;20048;-74
2023/03/01 01:17:12;;;;;;;14.35;9.02;;;-0.90;99.90;;;;;;5013875;28;20041;-74
2023/03/01 01:19:38;;;;;;;10.98;7.20;;;-0.90;99.90;;;;;;5018345;28;20133;-74
2023/03/01 01:22:03;;;;;;;11.65;7.72;;;-1.00;99.90;;;;;;5018056;28;20045;-74
2023/03/01 01:24:29;;;;;;;11.88;8.77;;;-1.20;99.90;;;;;;5018162;28;20038;-74
2023/03/01 01:26:55;;;;;;;16.88;8.85;;;-1.20;99.90;;;;;;5017986;28;20053;-74
2023/03/01 01:29:21;;;;;;;17.02;9.30;;;-1.20;99.90;;;;;;5018196;28;20041;-74
2023/03/01 01:31:47;;;;;;;19.73;10.77;;;-1.10;99.90;;;;;;5018382;28;20046;-74
2023/03/01 01:34:15;;;;;;;52.13;16.35;;;-0.90;99.90;;;;;;5017824;28;20045;-74
2023/03/01 01:36:41;;;;;;;19.60;12.07;;;-1.20;99.90;;;;;;5014145;28;20070;-74
2023/03/01 01:39:07;;;;;;;21.48;11.48;;;-1.40;99.90;;;;;;5014095;28;20048;-74
2023/03/01 01:41:33;;;;;;;27.02;11.65;;;-1.40;99.90;;;;;;5017955;28;20057;-74
2023/03/01 01:44:34;;;;;;;31.67;12.75;;;-1.50;99.90;;;;;;5017125;28;20053;-73
2023/03/01 01:47:16;;;;;;;49.70;16.33;;;-1.50;99.90;;;;;;4942034;29;20136;-74
2023/03/01 01:49:47;;;;;;;27.73;14.60;;;-1.60;99.90;;;;;;5001519;28;20633;-74
2023/03/01 01:52:29;;;;;;;94.85;16.92;;;-1.70;99.90;;;;;;5011485;28;20101;-74
2023/03/01 01:55:00;;;;;;;27.55;13.05;;;-1.70;99.90;;;;;;5018072;28;20053;-74
2023/03/01 01:57:34;;;;;;;53.38;12.43;;;-1.70;99.90;;;;;;5017845;28;20169;-74
2023/03/01 02:00:06;;;;;;;25.10;8.35;;;-1.70;99.90;;;;;;5001692;28;20050;-74
2023/03/01 02:02:32;;;;;;;15.00;12.07;;;-1.70;99.90;;;;;;5017989;28;20670;-74
2023/03/01 02:05:26;;;;;;;13.48;10.50;;;-1.70;99.90;;;;;;5004606;28;20093;-73
2023/03/01 02:07:53;;;;;;;13.57;9.10;;;-1.60;99.90;;;;;;4990667;28;20054;-73
2023/03/01 02:10:21;;;;;;;14.70;9.45;;;-1.50;99.90;;;;;;5016420;28;20041;-73
2023/03/01 02:12:46;;;;;;;13.30;9.82;;;-1.40;99.90;;;;;;5015223;28;20072;-73
2023/03/01 02:15:12;;;;;;;12.88;9.60;;;-1.40;99.90;;;;;;5017643;28;20042;-73
2023/03/01 02:17:38;;;;;;;13.48;9.00;;;-1.20;99.90;;;;;;5007703;28;20110;-73
2023/03/01 02:20:14;;;;;;;12.35;8.48;;;-1.30;99.90;;;;;;5015023;28;20038;-73
2023/03/01 02:22:39;;;;;;;15.02;9.25;;;-1.30;99.90;;;;;;5016996;28;20049;-73
2023/03/01 02:25:12;;;;;;;14.52;9.65;;;-1.30;99.90;;;;;;4999604;28;20272;-74
2023/03/01 02:27:56;;;;;;;13.00;8.80;;;-1.30;99.90;;;;;;5017067;28;20092;-73
2023/03/01 02:30:24;;;;;;;24.88;11.18;;;-1.40;99.90;;;;;;5016532;28;20100;-74
2023/03/01 02:32:50;;;;;;;41.38;12.25;;;-1.40;99.90;;;;;;5016834;28;20054;-74
2023/03/01 02:35:19;;;;;;;34.97;11.02;;;-1.50;99.90;;;;;;5016530;28;20054;-74
2023/03/01 02:37:45;;;;;;;36.28;17.70;;;-1.30;99.90;;;;;;5017278;28;20042;-73
2023/03/01 02:40:17;;;;;;;25.52;15.63;;;-1.50;99.90;;;;;;5012190;28;20034;-73
2023/03/01 02:42:57;;;;;;;55.90;11.35;;;-1.60;99.90;;;;;;5016454;28;20168;-73
2023/03/01 02:45:24;;;;;;;90.00;14.05;;;-1.80;99.90;;;;;;5016994;28;20053;-74
2023/03/01 02:47:53;;;;;;;101.15;13.98;;;-1.90;99.90;;;;;;5016545;28;20033;-73
2023/03/01 02:50:30;;;;;;;127.55;15.55;;;-1.90;99.90;;;;;;5011271;28;20064;-74
2023/03/01 02:53:02;;;;;;;128.13;16.85;;;-1.90;99.90;;;;;;5016367;28;20565;-73
2023/03/01 02:55:27;;;;;;;86.30;17.45;;;-2.00;99.90;;;;;;5016921;28;20058;-74
2023/03/01 02:57:55;;;;;;;30.20;9.48;;;-2.10;99.90;;;;;;5016957;28;20038;-74
2023/03/01 03:00:35;;;;;;;35.17;9.95;;;-2.20;99.90;;;;;;5016248;28;20045;-73
2023/03/01 03:03:01;;;;;;;63.35;10.27;;;-2.20;99.90;;;;;;4998677;28;20054;-74
2023/03/01 03:05:30;;;;;;;45.17;8.05;;;-2.10;99.90;;;;;;5015908;28;20072;-73
2023/03/01 03:07:56;;;;;;;47.92;9.50;;;-2.00;99.90;;;;;;5016763;28;20052;-74
2023/03/01 03:10:39;;;;;;;85.75;16.98;;;-1.80;99.90;;;;;;5016612;28;20050;-74
2023/03/01 03:13:08;;;;;;;54.08;13.75;;;-1.70;99.90;;;;;;5016082;28;20064;-74
2023/03/01 03:15:35;;;;;;;77.45;16.20;;;-1.60;99.90;;;;;;5016623;28;20084;-73
2023/03/01 03:18:03;;;;;;;38.55;11.77;;;-1.50;99.90;;;;;;5015411;28;20506;-74
2023/03/01 03:20:29;;;;;;;17.40;9.95;;;-1.40;99.90;;;;;;5016151;28;20057;-74
2023/03/01 03:22:58;;;;;;;14.38;9.25;;;-1.40;99.90;;;;;;5015898;28;20046;-74
2023/03/01 03:25:24;;;;;;;15.65;10.68;;;-0.30;99.90;;;;;;5015707;28;20081;-74
2023/03/01 03:27:56;;;;;;;29.25;17.05;;;-1.20;99.90;;;;;;5016811;28;20088;-73
2023/03/01 03:30:27;;;;;;;28.00;18.02;;;-1.30;99.90;;;;;;5015650;28;20058;-74
2023/03/01 03:32:53;;;;;;;28.88;18.77;;;-1.50;99.90;;;;;;5016147;28;20068;-74
2023/03/01 03:35:25;;;;;;;24.67;15.48;;;-1.60;99.90;;;;;;5015624;28;20049;-74
2023/03/01 03:38:03;;;;;;;22.98;14.15;;;-1.70;99.90;;;;;;5015972;28;20087;-74
2023/03/01 03:40:39;;;;;;;26.95;16.92;;;-1.70;99.90;;;;;;5016106;28;20068;-74
2023/03/01 03:43:16;;;;;;;25.00;15.15;;;-1.80;99.90;;;;;;5007743;28;20057;-74
2023/03/01 03:45:43;;;;;;;22.73;14.48;;;-1.90;99.90;;;;;;5016318;28;20065;-74
2023/03/01 03:48:09;;;;;;;24.63;14.85;;;-1.90;99.90;;;;;;5015134;28;20077;-74
2023/03/01 03:50:36;;;;;;;19.38;12.05;;;-1.90;99.90;;;;;;5016091;28;20042;-73
2023/03/01 03:53:05;;;;;;;15.30;10.35;;;-1.90;99.90;;;;;;5015750;28;20053;-74
2023/03/01 03:55:33;;;;;;;17.75;11.80;;;-1.90;99.90;;;;;;5016055;28;20450;-74
2023/03/01 03:58:06;;;;;;;15.85;10.93;;;-1.90;99.90;;;;;;5002157;28;20096;-74
2023/03/01 04:00:34;;;;;;;19.25;12.80;;;-2.00;99.90;;;;;;5015126;28;20651;-74
2023/03/01 04:03:00;;;;;;;14.60;10.50;;;-2.20;99.90;;;;;;5015930;28;20065;-74
2023/03/01 04:05:27;;;;;;;12.20;8.20;;;-2.30;99.90;;;;;;5009730;28;20042;-73
2023/03/01 04:08:00;;;;;;;28.67;10.27;;;-2.40;99.90;;;;;;5015802;28;20057;-74
2023/03/01 04:10:30;;;;;;;22.02;11.10;;;-2.50;99.90;;;;;;5015923;28;20046;-73
2023/03/01 04:12:56;;;;;;;19.13;11.57;;;-2.40;99.90;;;;;;5015463;28;20041;-73
2023/03/01 04:15:23;;;;;;;16.38;10.70;;;-2.40;99.90;;;;;;5015863;28;20042;-73
2023/03/01 04:17:51;;;;;;;19.80;12.55;;;-2.40;99.90;;;;;;5014998;28;20462;-74
2023/03/01 04:20:26;;;;;;;21.27;10.75;;;-2.40;99.90;;;;;;5001396;28;20051;-73
2023/03/01 04:23:21;;;;;;;40.20;7.80;;;-2.40;99.90;;;;;;5007442;28;20057;-74
2023/03/01 04:25:55;;;;;;;18.27;7.55;;;-2.20;99.90;;;;;;4997819;28;20126;-73
2023/03/01 04:28:22;;;;;;;13.25;8.50;;;-2.20;99.90;;;;;;5016127;28;20079;-74
2023/03/01 04:30:47;;;;;;;15.57;9.93;;;-1.80;99.90;;;;;;5015232;28;20062;-74
2023/03/01 04:33:13;;;;;;;13.23;8.77;;;-2.20;99.90;;;;;;5013967;28;20071;-74
2023/03/01 04:35:40;;;;;;;15.60;10.02;;;-2.10;99.90;;;;;;5011844;28;20044;-73
2023/03/01 04:38:06;;;;;;;13.20;9.35;;;-2.00;99.90;;;;;;5005028;28;20332;-74
2023/03/01 04:40:32;;;;;;;17.58;11.07;;;-2.00;99.90;;;;;;5015591;28;20076;-73
2023/03/01 04:42:58;;;;;;;15.68;10.48;;;-1.90;99.90;;;;;;5012197;28;20529;-74
2023/03/01 04:45:25;;;;;;;14.65;10.18;;;-1.90;99.90;;;;;;5019479;28;20049;-73
2023/03/01 04:47:52;;;;;;;12.73;9.10;;;-1.80;99.90;;;;;;5018361;28;20046;-73
2023/03/01 04:50:20;;;;;;;31.63;17.80;;;-1.80;99.90;;;;;;5018665;28;20174;-73
2023/03/01 04:52:47;;;;;;;26.42;14.98;;;-1.90;99.90;;;;;;5018652;28;20038;-73
2023/03/01 04:55:13;;;;;;;23.27;13.13;;;-2.00;99.90;;;;;;5018637;28;20052;-73
2023/03/01 04:57:39;;;;;;;20.13;12.48;;;-2.00;99.90;;;;;;5019389;28;20046;-73
2023/03/01 05:00:20;;;;;;;16.15;9.77;;;-2.00;99.90;;;;;;5018319;28;20068;-73
2023/03/01 05:02:57;;;;;;;13.75;9.55;;;-2.10;99.90;;;;;;5018849;28;20113;-73
2023/03/01 05:05:26;;;;;;;15.40;9.70;;;-2.00;99.90;;;;;;5017664;28;20579;-73
2023/03/01 05:07:53;;;;;;;14.38;8.98;;;-2.00;99.90;;;;;;5012516;28;20053;-73
2023/03/01 05:10:20;;;;;;;13.95;9.20;;;-2.10;99.90;;;;;;4997722;28;20035;-73
2023/03/01 05:12:46;;;;;;;16.38;12.70;;;-2.10;99.90;;;;;;5015370;28;20454;-73
2023/03/01 05:15:12;;;;;;;14.75;9.05;;;-2.10;99.90;;;;;;5016913;28;20041;-73
2023/03/01 05:17:38;;;;;;;12.65;9.10;;;-2.10;99.90;;;;;;5014318;28;20046;-73
2023/03/01 05:20:08;;;;;;;15.65;10.23;;;-2.10;99.90;;;;;;5013935;28;20034;-73
2023/03/01 05:22:34;;;;;;;14.70;9.55;;;-2.20;99.90;;;;;;5018002;28;20102;-73
2023/03/01 05:25:00;;;;;;;13.88;8.90;;;-2.30;99.90;;;;;;5018188;28;20057;-74
2023/03/01 05:27:25;;;;;;;14.48;8.57;;;-2.40;99.90;;;;;;5018211;28;20046;-73
2023/03/01 05:29:51;;;;;;;11.43;8.40;;;-2.40;99.90;;;;;;5017782;28;20049;-73
2023/03/01 05:32:17;;;;;;;11.57;8.32;;;-2.50;99.90;;;;;;5014136;28;20042;-73
2023/03/01 05:34:46;;;;;;;14.57;9.13;;;-2.50;99.90;;;;;;5011373;28;20042;-73
2023/03/01 05:37:12;;;;;;;15.52;9.80;;;-2.40;99.90;;;;;;5000391;28;20483;-73
2023/03/01 05:39:38;;;;;;;13.13;9.75;;;-2.40;99.90;;;;;;5017564;28;20053;-73
2023/03/01 05:42:03;;;;;;;15.25;9.57;;;-2.40;99.90;;;;;;5017595;28;20045;-73
2023/03/01 05:44:30;;;;;;;13.73;9.57;;;-2.40;99.90;;;;;;5017750;28;20111;-73
2023/03/01 05:46:56;;;;;;;17.23;10.35;;;-2.30;99.90;;;;;;5017377;28;20549;-73
2023/03/01 05:49:25;;;;;;;16.15;9.55;;;-2.30;99.90;;;;;;5017506;28;20034;-73
2023/03/01 05:51:53;;;;;;;14.85;9.55;;;-2.30;99.90;;;;;;5017274;28;20048;-73
2023/03/01 05:54:20;;;;;;;15.63;10.15;;;-1.90;99.90;;;;;;5017806;28;20038;-73
2023/03/01 05:56:46;;;;;;;14.07;9.00;;;-2.30;99.90;;;;;;5017082;28;20100;-73
2023/03/01 05:59:13;;;;;;;14.60;9.02;;;-2.40;99.90;;;;;;5017831;28;20132;-73
2023/03/01 06:01:39;;;;;;;14.95;9.60;;;-2.50;99.90;;;;;;5009569;28;20065;-73
2023/03/01 06:04:05;;;;;;;17.33;10.43;;;-2.40;99.90;;;;;;5010363;28;20455;-73
2023/03/01 06:06:37;;;;;;;16.35;10.40;;;-2.40;99.90;;;;;;5017733;28;20060;-73
2023/03/01 06:09:03;;;;;;;16.55;10.02;;;-2.40;99.90;;;;;;5016775;28;20085;-73
2023/03/01 06:11:29;;;;;;;14.73;9.88;;;-2.50;99.90;;;;;;5017439;28;20046;-73
2023/03/01 06:13:55;;;;;;;14.38;9.82;;;-2.50;99.90;;;;;;5015999;28;20127;-74
2023/03/01 06:16:20;;;;;;;15.10;9.43;;;-2.60;99.90;;;;;;5017211;28;20052;-73
2023/03/01 06:18:46;;;;;;;15.98;9.77;;;-2.60;99.90;;;;;;5016665;28;20052;-73
2023/03/01 06:21:12;;;;;;;15.93;9.05;;;-2.60;99.90;;;;;;5016489;28;20110;-73
2023/03/01 06:23:37;;;;;;;13.43;8.80;;;-2.60;99.90;;;;;;5012167;28;20053;-73
2023/03/01 06:26:08;;;;;;;12.43;7.97;;;-2.70;99.90;;;;;;5013802;28;20045;-73
2023/03/01 06:28:34;;;;;;;12.10;8.50;;;-2.60;99.90;;;;;;5017315;28;20129;-72
2023/03/01 06:31:00;;;;;;;11.38;8.23;;;-2.60;99.90;;;;;;5014009;28;20491;-72
2023/03/01 06:33:25;;;;;;;11.32;7.97;;;-2.50;99.90;;;;;;5017219;28;20046;-73
2023/03/01 06:35:54;;;;;;;11.65;7.13;;;-2.40;99.90;;;;;;5016674;28;20131;-73
2023/03/01 06:38:20;;;;;;;11.15;7.90;;;-2.30;99.90;;;;;;5016773;28;20053;-73
2023/03/01 06:40:51;;;;;;;12.80;8.18;;;-2.30;99.90;;;;;;5017194;28;20670;-72
2023/03/01 06:43:17;;;;;;;13.90;8.75;;;-2.30;99.90;;;;;;5016243;28;20077;-73
2023/03/01 06:45:43;;;;;;;13.43;9.05;;;-2.30;99.90;;;;;;5016939;28;20080;-73
2023/03/01 06:48:08;;;;;;;12.35;8.25;;;-2.10;99.90;;;;;;5016087;28;20430;-73
2023/03/01 06:50:35;;;;;;;11.70;8.70;;;-2.20;99.90;;;;;;5016035;28;20061;-72
2023/03/01 06:53:01;;;;;;;11.52;7.68;;;-2.20;99.90;;;;;;5013952;28;21003;-73
2023/03/01 06:55:27;;;;;;;12.57;7.85;;;-2.20;99.90;;;;;;5013306;28;20072;-73
2023/03/01 06:57:59;;;;;;;12.07;8.32;;;-2.20;99.90;;;;;;4997888;28;20062;-73
2023/03/01 07:00:26;;;;;;;13.70;8.32;;;-2.40;99.90;;;;;;4977239;28;20229;-73
2023/03/01 07:02:52;;;;;;;13.07;7.85;;;-2.10;99.90;;;;;;5009803;28;20089;-73
2023/03/01 07:05:18;;;;;;;11.50;7.78;;;-2.10;99.90;;;;;;5015808;28;20049;-72
2023/03/01 07:07:44;;;;;;;11.93;8.00;;;-2.10;99.90;;;;;;5016859;28;20058;-73
2023/03/01 07:10:10;;;;;;;10.30;7.35;;;-2.10;99.90;;;;;;4995433;28;20046;-73
2023/03/01 07:12:36;;;;;;;9.93;6.85;;;-2.00;99.90;;;;;;5013988;28;20042;-73
2023/03/01 07:15:03;;;;;;;9.60;6.75;;;-2.00;99.90;;;;;;5016876;28;20128;-73
2023/03/01 07:17:28;;;;;;;9.88;6.95;;;-1.90;99.90;;;;;;5015789;28;20050;-73
2023/03/01 07:19:54;;;;;;;9.95;7.93;;;-1.90;99.90;;;;;;5016162;28;20068;-73
2023/03/01 07:22:20;;;;;;;10.75;7.60;;;-1.80;99.90;;;;;;5015638;28;20124;-73
2023/03/01 07:24:45;;;;;;;9.77;7.25;;;-1.70;99.90;;;;;;5014180;28;20041;-73
2023/03/01 07:27:11;;;;;;;12.52;7.53;;;-1.70;99.90;;;;;;5014168;28;20041;-73
2023/03/01 07:29:37;;;;;;;10.63;7.05;;;-1.60;99.90;;;;;;5015928;28;20512;-72
2023/03/01 07:32:04;;;;;;;12.20;8.45;;;-1.50;99.90;;;;;;5014793;28;20112;-72
2023/03/01 07:34:30;;;;;;;12.98;8.05;;;-1.40;99.90;;;;;;5015245;28;20447;-72
2023/03/01 07:36:55;;;;;;;12.50;8.10;;;-1.30;99.90;;;;;;5016036;28;20056;-72
2023/03/01 07:39:22;;;;;;;12.25;8.32;;;-1.20;99.90;;;;;;5015015;28;20056;-72
2023/03/01 07:41:49;;;;;;;13.32;9.35;;;-1.20;99.90;;;;;;5016309;28;20093;-72
2023/03/01 07:44:16;;;;;;;14.13;9.02;;;-1.10;99.90;;;;;;5015862;28;20053;-72
2023/03/01 07:46:42;;;;;;;14.20;9.43;;;-1.00;99.90;;;;;;5015893;28;20499;-72
2023/03/01 07:49:07;;;;;;;14.18;9.48;;;-0.80;99.90;;;;;;5015632;28;20077;-72
2023/03/01 07:51:33;;;;;;;14.20;9.35;;;0.00;99.90;;;;;;5015428;28;20037;-72
2023/03/01 07:53:59;;;;;;;15.50;10.30;;;-0.60;99.90;;;;;;5016164;28;20050;-72
2023/03/01 07:56:24;;;;;;;15.50;10.05;;;-0.60;99.90;;;;;;5015121;28;20040;-72
2023/03/01 07:58:50;;;;;;;16.35;10.23;;;-0.50;99.90;;;;;;5015859;28;20057;-72
2023/03/01 08:01:19;;;;;;;16.08;11.07;;;-0.40;99.90;;;;;;5007376;28;20038;-72
2023/03/01 08:03:45;;;;;;;16.80;10.73;;;-0.30;99.90;;;;;;5015956;28;20042;-72
2023/03/01 08:06:12;;;;;;;15.98;10.65;;;-0.10;99.90;;;;;;5018705;28;20057;-72
2023/03/01 08:08:38;;;;;;;17.10;11.13;;;0.00;99.90;;;;;;5018058;28;20045;-72
2023/03/01 08:11:06;;;;;;;17.58;11.48;;;0.10;99.90;;;;;;5019801;28;20391;-73
2023/03/01 08:13:32;;;;;;;18.50;11.57;;;0.20;99.90;;;;;;4993132;28;20503;-72
2023/03/01 08:16:07;;;;;;;16.95;12.13;;;0.30;99.90;;;;;;5009876;28;20101;-73
2023/03/01 08:18:34;;;;;;;18.38;11.13;;;0.40;99.90;;;;;;5016368;28;20100;-73
2023/03/01 08:21:04;;;;;;;21.48;14.85;;;0.60;99.90;;;;;;5018441;28;20056;-73
2023/03/01 08:23:30;;;;;;;19.90;13.48;;;0.60;99.90;;;;;;5018676;28;20076;-73
2023/03/01 08:26:07;;;;;;;15.35;10.57;;;0.80;99.90;;;;;;5018522;28;20105;-73
2023/03/01 08:28:33;;;;;;;16.13;10.75;;;0.80;99.90;;;;;;5019208;28;20033;-73
2023/03/01 08:30:58;;;;;;;16.20;10.68;;;1.10;99.90;;;;;;4996072;28;20046;-73
2023/03/01 08:33:24;;;;;;;16.02;11.55;;;1.00;99.90;;;;;;5018983;28;20048;-73
2023/03/01 08:35:50;;;;;;;14.68;10.60;;;1.10;99.90;;;;;;5018222;28;20041;-74
2023/03/01 08:38:15;;;;;;;16.50;10.95;;;1.20;99.90;;;;;;5018153;28;20049;-74
2023/03/01 08:40:41;;;;;;;16.33;11.13;;;1.50;99.90;;;;;;5018736;28;20072;-74
2023/03/01 08:43:07;;;;;;;15.75;10.60;;;1.40;99.90;;;;;;5018190;28;20430;-74
2023/03/01 08:45:32;;;;;;;16.73;10.38;;;1.50;99.90;;;;;;5017918;28;20041;-74
2023/03/01 08:47:58;;;;;;;14.25;10.68;;;1.50;99.90;;;;;;5017694;28;20050;-73
2023/03/01 08:50:24;;;;;;;15.30;10.27;;;1.60;99.90;;;;;;5018145;28;20041;-74
2023/03/01 08:52:50;;;;;;;15.32;10.45;;;1.60;99.90;;;;;;5017859;28;20046;-73
2023/03/01 08:55:17;;;;;;;15.32;10.32;;;2.00;99.90;;;;;;5018245;28;20045;-73
2023/03/01 08:57:43;;;;;;;14.85;9.60;;;1.80;99.90;;;;;;5018897;28;20050;-73
2023/03/01 09:00:11;;;;;;;15.88;9.57;;;1.90;99.90;;;;;;5017082;28;20041;-73
2023/03/01 09:02:38;;;;;;;12.10;9.35;;;2.00;99.90;;;;;;5018013;28;20485;-73
2023/03/01 09:05:04;;;;;;;14.77;9.90;;;2.30;99.90;;;;;;5016383;28;20042;-74
2023/03/01 09:07:30;;;;;;;15.50;8.77;;;2.30;99.90;;;;;;5016369;28;20053;-74
2023/03/01 09:09:55;;;;;;;14.73;9.43;;;2.40;99.90;;;;;;5017189;28;20068;-74
2023/03/01 09:12:22;;;;;;;13.68;8.90;;;2.60;99.90;;;;;;5016892;28;20571;-74
2023/03/01 09:14:47;;;;;;;11.25;8.48;;;2.70;99.90;;;;;;5017373;28;20053;-74
2023/03/01 09:17:13;;;;;;;10.98;8.15;;;2.90;99.90;;;;;;5016487;28;20057;-74
2023/03/01 09:19:39;;;;;;;11.45;8.65;;;3.00;99.90;;;;;;5017639;28;20038;-74
2023/03/01 09:22:05;;;;;;;14.40;9.43;;;3.10;99.90;;;;;;5016214;28;20054;-74
2023/03/01 09:24:30;;;;;;;11.70;8.63;;;3.30;99.90;;;;;;5017583;28;20045;-75
2023/03/01 09:26:56;;;;;;;11.43;8.90;;;3.40;99.90;;;;;;5015065;28;20416;-75
2023/03/01 09:29:22;;;;;;;12.27;8.43;;;3.60;99.90;;;;;;5017369;28;20507;-74
2023/03/01 09:31:48;;;;;;;12.40;8.75;;;3.70;99.90;;;;;;4999879;28;20041;-74
2023/03/01 09:34:16;;;;;;;10.98;8.13;;;3.80;99.90;;;;;;5016854;28;20116;-74
2023/03/01 09:36:41;;;;;;;10.65;7.45;;;4.00;99.90;;;;;;5016851;28;20038;-74
2023/03/01 09:39:07;;;;;;;10.48;7.63;;;4.20;99.90;;;;;;5016265;28;20077;-74
2023/03/01 09:41:59;;;;;;;13.20;9.00;;;4.30;99.90;;;;;;5017602;28;20038;-74
2023/03/01 09:44:25;;;;;;;15.30;9.57;;;4.40;99.90;;;;;;5013323;28;20037;-74
2023/03/01 09:46:51;;;;;;;12.02;8.77;;;4.00;99.90;;;;;;5012479;28;20072;-74
2023/03/01 09:49:21;;;;;;;12.93;8.38;;;4.60;99.90;;;;;;5012952;28;20041;-73
2023/03/01 09:52:14;;;;;;;11.63;8.30;;;4.70;99.90;;;;;;5014200;28;20053;-74
2023/03/01 09:54:40;;;;;;;13.25;8.55;;;4.90;99.90;;;;;;5015970;28;20057;-73
2023/03/01 09:57:24;;;;;;;11.07;8.23;;;5.00;99.90;;;;;;5007553;28;20412;-74
2023/03/01 10:00:04;;;;;;;10.20;7.60;;;5.20;99.90;;;;;;5014725;28;20046;-74
2023/03/01 10:02:42;;;;;;;8.15;5.88;;;5.30;99.90;;;;;;5016387;28;20081;-74
2023/03/01 10:05:36;;;;;;;9.98;6.43;;;5.70;99.90;;;;;;5016602;28;20065;-74
2023/03/01 10:08:08;;;;;;;8.00;6.00;;;6.30;99.90;;;;;;5016670;28;20050;-74
2023/03/01 10:10:37;;;;;;;6.90;4.32;;;6.80;99.90;;;;;;4996238;28;20046;-74
2023/03/01 10:13:15;;;;;;;6.82;4.53;;;7.20;99.90;;;;;;5012413;28;20456;-74
2023/03/01 10:15:49;;;;;;;5.50;3.45;;;7.50;99.90;;;;;;5016484;28;20050;-74
2023/03/01 10:18:20;;;;;;;5.90;4.32;;;7.80;99.90;;;;;;5014444;28;20042;-74
2023/03/01 10:20:52;;;;;;;5.85;4.28;;;8.10;99.90;;;;;;5015867;28;20385;-74
2023/03/01 10:23:18;;;;;;;6.45;4.13;;;8.30;99.90;;;;;;5016665;28;20073;-74
2023/03/01 10:25:58;;;;;;;7.68;5.00;;;8.60;99.90;;;;;;5016075;28;20046;-74
2023/03/01 10:28:47;;;;;;;5.43;4.10;;;8.80;99.90;;;;;;4997926;28;20054;-75
2023/03/01 10:31:22;;;;;;;5.32;3.38;;;8.90;99.90;;;;;;5015365;28;20226;-74
2023/03/01 10:33:51;;;;;;;5.50;3.25;;;9.10;99.90;;;;;;5016683;28;20060;-74
2023/03/01 10:36:17;;;;;;;5.75;3.10;;;9.30;99.90;;;;;;5016608;28;20052;-75
2023/03/01 10:38:54;;;;;;;4.25;3.00;;;9.30;99.90;;;;;;5015687;28;20077;-76
2023/03/01 10:41:26;;;;;;;5.43;3.10;;;9.50;99.90;;;;;;5016265;28;20049;-75
2023/03/01 10:43:54;;;;;;;5.30;3.30;;;9.70;99.90;;;;;;5015244;28;20073;-76
2023/03/01 10:46:29;;;;;;;4.82;2.85;;;9.90;99.90;;;;;;4998641;28;20048;-75
2023/03/01 10:49:18;;;;;;;5.53;3.95;;;10.10;99.90;;;;;;5015915;28;20145;-74
2023/03/01 10:51:46;;;;;;;5.68;4.18;;;10.30;99.90;;;;;;5015456;28;20209;-74
2023/03/01 10:54:28;;;;;;;5.40;3.92;;;10.40;99.90;;;;;;5015295;28;20061;-74
2023/03/01 10:56:59;;;;;;;5.50;3.92;;;10.50;99.90;;;;;;5015373;28;20045;-74
2023/03/01 10:59:36;;;;;;;5.90;3.67;;;10.50;99.90;;;;;;5013627;28;20034;-75
2023/03/01 11:02:23;;;;;;;4.13;3.27;;;10.60;99.90;;;;;;5097905;28;20141;-74
2023/03/01 11:04:59;;;;;;;5.53;3.10;;;10.60;99.90;;;;;;5079466;28;20578;-73
2023/03/01 11:07:26;;;;;;;5.63;3.00;;;10.80;99.90;;;;;;5106655;28;20040;-73
2023/03/01 11:09:51;;;;;;;4.30;3.20;;;10.80;99.90;;;;;;5076409;28;20045;-74
2023/03/01 11:12:18;;;;;;;5.38;3.50;;;10.80;99.90;;;;;;5095940;28;20043;-74
2023/03/01 11:14:53;;;;;;;5.22;3.67;;;10.80;99.90;;;;;;5116305;28;20036;-75
2023/03/01 11:17:25;;;;;;;4.93;3.22;;;10.60;99.90;;;;;;5075114;28;20055;-74
2023/03/01 11:20:13;;;;;;;5.30;3.17;;;10.60;99.90;;;;;;5078135;28;20047;-74
2023/03/01 11:22:50;;;;;;;4.68;3.13;;;10.70;99.90;;;;;;5076005;28;20060;-75
2023/03/01 11:25:19;;;;;;;3.75;2.80;;;10.70;99.90;;;;;;5083809;28;20618;-74
2023/03/01 11:27:46;;;;;;;3.67;2.42;;;10.60;99.90;;;;;;5077906;28;20066;-74
2023/03/01 11:30:33;;;;;;;4.07;3.13;;;10.50;99.90;;;;;;5108398;28;20040;-75
2023/03/01 11:33:07;;;;;;;3.90;2.90;;;10.40;99.90;;;;;;5090281;28;20053;-74
2023/03/01 11:35:37;;;;;;;5.18;3.08;;;10.30;99.90;;;;;;5076153;28;20056;-75
2023/03/01 11:38:23;;;;;;;5.13;3.10;;;10.40;99.90;;;;;;5097435;28;20053;-75
2023/03/01 11:41:07;;;;;;;5.17;2.70;;;10.50;99.90;;;;;;5109386;28;20072;-75
2023/03/01 11:43:45;;;;;;;4.65;2.97;;;10.70;99.90;;;;;;5076001;28;20307;-74
2023/03/01 11:46:14;;;;;;;4.07;3.00;;;11.00;99.90;;;;;;5077614;28;20048;-75
2023/03/01 11:49:07;;;;;;;5.15;3.45;;;11.30;99.90;;;;;;5064277;28;20056;-76
2023/03/01 11:52:04;;;;;;;5.95;3.60;;;11.40;99.90;;;;;;5063254;28;22665;-75
2023/03/01 11:54:36;;;;;;;6.18;3.90;;;11.60;99.90;;;;;;5084581;28;20037;-75
2023/03/01 11:57:15;;;;;;;5.95;3.97;;;11.70;99.90;;;;;;5080378;28;20048;-74
2023/03/01 11:59:44;;;;;;;5.97;4.20;;;11.90;99.90;;;;;;5082856;28;20078;-74
2023/03/01 12:02:29;;;;;;;4.95;3.63;;;11.60;99.90;;;;;;5066003;28;20045;-75
2023/03/01 12:05:14;;;;;;;4.97;3.70;;;11.00;99.90;;;;;;5075320;28;20072;-76
2023/03/01 12:08:14;;;;;;;7.00;3.78;;;10.50;99.90;;;;;;5082111;28;20044;-77
2023/03/01 12:10:52;;;;;;;5.22;3.80;;;10.00;99.90;;;;;;5074694;28;20044;-77
2023/03/01 12:13:35;;;;;;;5.53;3.40;;;9.80;99.90;;;;;;5070099;28;20048;-75
2023/03/01 12:16:27;;;;;;;6.15;4.07;;;9.50;99.90;;;;;;5066620;28;20059;-75
2023/03/01 12:19:16;;;;;;;5.88;3.97;;;9.40;99.90;;;;;;5069346;28;20059;-76
2023/03/01 12:22:04;;;;;;;5.40;3.67;;;9.20;99.90;;;;;;5054900;28;20061;-76
2023/03/01 12:24:52;;;;;;;5.90;4.00;;;9.50;99.90;;;;;;5064724;28;20064;-75
2023/03/01 12:27:40;;;;;;;5.40;4.05;;;10.30;99.90;;;;;;5070274;28;20079;-75
2023/03/01 12:30:24;;;;;;;7.88;4.10;;;11.30;99.90;;;;;;5060190;28;20080;-75
2023/03/01 12:33:05;;;;;;;5.95;3.55;;;12.30;99.90;;;;;;5060064;28;20045;-77
2023/03/01 12:35:48;;;;;;;7.10;4.28;;;13.00;99.90;;;;;;5063886;28;20059;-77
2023/03/01 12:38:29;;;;;;;4.65;3.67;;;13.40;99.90;;;;;;5049614;28;20471;-76
2023/03/01 12:41:29;;;;;;;6.00;4.47;;;14.00;99.90;;;;;;5060833;28;20155;-76
2023/03/01 12:44:19;;;;;;;6.18;4.40;;;14.00;99.90;;;;;;5059750;28;20101;-78
2023/03/01 12:46:52;;;;;;;5.20;3.88;;;13.90;99.90;;;;;;5059820;28;20071;-76
2023/03/01 12:49:57;;;;;;;6.43;4.47;;;13.70;99.90;;;;;;5060852;28;20035;-78
2023/03/01 12:52:51;;;;;;;5.25;3.95;;;13.20;99.90;;;;;;5094807;28;20044;-79
2023/03/01 12:55:42;;;;;;;7.18;5.38;;;13.10;99.90;;;;;;5059514;28;20064;-77